createdAt,value
2022-08-20T00:04:22.522Z,1.85
2022-08-20T00:09:24.505Z,1.05
2022-08-20T00:14:26.620Z,2.30
2022-08-20T00:19:29.424Z,2.30
2022-08-20T00:24:31.446Z,0.70
2022-08-20T00:29:33.266Z,1.00
2022-08-20T00:34:35.284Z,0.88
2022-08-20T00:39:37.436Z,1.02
2022-08-20T00:44:46.636Z,0.82
2022-08-20T00:49:48.576Z,0.63
2022-08-20T00:54:55.194Z,1.20
2022-08-20T00:59:58.818Z,0.85
2022-08-20T01:05:01.637Z,1.00
2022-08-20T01:10:09.126Z,1.65
2022-08-20T01:15:15.095Z,0.80
2022-08-20T01:20:26.700Z,1.63
2022-08-20T01:25:37.778Z,0.90
2022-08-20T01:30:39.790Z,0.40
2022-08-20T01:35:42.960Z,0.73
2022-08-20T01:41:19.216Z,0.98
2022-08-20T01:46:35.677Z,0.90
2022-08-20T01:51:39.300Z,1.30
2022-08-20T01:56:53.200Z,1.00
2022-08-20T02:01:55.743Z,0.93
2022-08-20T02:07:00.531Z,1.58
2022-08-20T02:12:04.125Z,2.15
2022-08-20T02:17:07.594Z,2.00
2022-08-20T02:22:18.784Z,0.68
2022-08-20T02:27:24.142Z,1.58
2022-08-20T02:32:33.819Z,2.22
2022-08-20T02:37:37.836Z,0.95
2022-08-20T02:42:42.321Z,0.85
2022-08-20T02:47:45.773Z,0.80
2022-08-20T02:52:51.864Z,1.40
2022-08-20T02:58:00.274Z,0.85
2022-08-20T03:03:03.240Z,4.38
2022-08-20T03:08:07.706Z,2.03
2022-08-20T03:13:13.054Z,1.17
2022-08-20T03:18:16.734Z,0.90
2022-08-20T03:23:20.719Z,1.33
2022-08-20T03:28:22.905Z,1.50
2022-08-20T03:33:24.879Z,1.65
2022-08-20T03:38:33.189Z,0.98
2022-08-20T03:43:35.915Z,1.45
2022-08-20T03:48:39.976Z,0.77
2022-08-20T03:53:42.134Z,0.88
2022-08-20T03:58:44.127Z,0.95
2022-08-20T04:03:49.995Z,1.00
2022-08-20T04:08:54.276Z,0.77
2022-08-20T04:13:56.207Z,1.48
2022-08-20T04:19:02.298Z,0.88
2022-08-20T04:24:06.483Z,1.42
2022-08-20T04:29:08.581Z,1.80
2022-08-20T04:34:10.444Z,1.08
2022-08-20T04:39:12.408Z,1.08
2022-08-20T04:44:14.438Z,0.60
2022-08-20T04:49:16.648Z,1.25
2022-08-20T04:54:18.408Z,1.20
2022-08-20T04:59:20.119Z,1.25
2022-08-20T05:04:21.977Z,1.48
2022-08-20T05:09:24.190Z,3.83
2022-08-20T05:14:26.538Z,1.17
2022-08-20T05:19:29.271Z,1.27
2022-08-20T05:24:31.397Z,2.67
2022-08-20T05:29:33.335Z,2.15
2022-08-20T05:34:35.123Z,3.38
2022-08-20T05:39:37.616Z,2.05
2022-08-20T05:44:39.677Z,6.32
2022-08-20T05:49:41.903Z,2.45
2022-08-20T05:54:46.475Z,4.00
2022-08-20T05:59:48.641Z,2.38
2022-08-20T06:04:56.070Z,4.35
2022-08-20T06:09:58.317Z,4.72
2022-08-20T06:15:00.238Z,2.88
2022-08-20T06:20:07.126Z,3.55
2022-08-20T06:25:10.417Z,5.57
2022-08-20T06:30:14.459Z,4.88
2022-08-20T06:35:19.897Z,5.63
2022-08-20T06:40:25.055Z,4.65
2022-08-20T06:45:32.628Z,6.95
2022-08-20T06:50:47.011Z,5.35
2022-08-20T06:55:53.700Z,6.15
2022-08-20T07:00:55.580Z,3.80
2022-08-20T07:05:57.792Z,5.95
2022-08-20T07:10:59.964Z,7.72
2022-08-20T07:16:02.070Z,10.57
2022-08-20T07:21:04.001Z,10.95
2022-08-20T07:26:08.205Z,8.40
2022-08-20T07:31:28.653Z,13.20
2022-08-20T07:36:33.526Z,15.18
2022-08-20T07:41:35.422Z,15.05
2022-08-20T07:46:37.116Z,21.35
2022-08-20T07:51:38.953Z,12.05
2022-08-20T07:56:40.727Z,25.75
2022-08-20T08:01:42.455Z,17.50
2022-08-20T08:06:45.626Z,27.98
2022-08-20T08:11:50.546Z,19.60
2022-08-20T08:16:58.213Z,14.30
2022-08-20T08:22:00.363Z,14.50
2022-08-20T08:27:02.156Z,15.77
2022-08-20T08:32:05.794Z,21.35
2022-08-20T08:37:07.938Z,12.15
2022-08-20T08:42:38.885Z,10.25
2022-08-20T08:47:45.437Z,9.27
2022-08-20T08:52:52.257Z,15.23
2022-08-20T08:57:56.909Z,17.00
2022-08-20T09:03:07.421Z,13.68
2022-08-20T09:08:16.819Z,11.35
2022-08-20T09:13:19.749Z,14.20
2022-08-20T09:18:21.829Z,17.35
2022-08-20T09:23:24.016Z,13.27
2022-08-20T09:28:32.271Z,15.02
2022-08-20T09:33:34.788Z,14.40
2022-08-20T09:38:36.670Z,18.08
2022-08-20T09:43:38.449Z,13.07
2022-08-20T09:48:40.254Z,12.48
2022-08-20T09:53:43.061Z,8.88
2022-08-20T09:58:53.601Z,6.75
2022-08-20T10:03:55.647Z,9.60
2022-08-20T10:08:57.620Z,11.23
2022-08-20T10:13:59.766Z,9.20
2022-08-20T10:19:02.181Z,8.27
2022-08-20T10:24:04.291Z,7.05
2022-08-20T10:29:06.277Z,6.63
2022-08-20T10:34:08.094Z,8.43
2022-08-20T10:39:10.295Z,9.00
2022-08-20T10:44:12.131Z,14.02
2022-08-20T10:49:14.158Z,13.02
2022-08-20T10:54:15.928Z,6.75
2022-08-20T10:59:17.908Z,7.25
2022-08-20T11:04:19.959Z,10.57
2022-08-20T11:09:22.068Z,7.38
2022-08-20T11:14:24.090Z,5.78
2022-08-20T11:19:25.882Z,10.35
2022-08-20T11:24:27.822Z,6.97
2022-08-20T11:29:33.914Z,6.13
2022-08-20T11:34:35.902Z,7.95
2022-08-20T11:39:41.687Z,8.73
2022-08-20T11:44:43.943Z,9.00
2022-08-20T11:49:46.045Z,5.00
2022-08-20T11:54:50.842Z,9.93
2022-08-20T11:59:58.887Z,6.20
2022-08-20T12:05:00.866Z,7.03
2022-08-20T12:10:03.854Z,3.75
2022-08-20T12:15:07.781Z,4.45
2022-08-20T12:20:12.300Z,4.88
2022-08-20T12:25:14.241Z,5.57
2022-08-20T12:30:20.008Z,2.42
2022-08-20T12:35:22.285Z,4.85
2022-08-20T12:40:32.000Z,3.95
2022-08-20T12:45:36.312Z,2.42
2022-08-20T12:50:40.717Z,3.53
2022-08-20T12:55:42.522Z,5.10
2022-08-20T13:00:50.721Z,6.90
2022-08-20T13:05:53.043Z,4.28
2022-08-20T13:10:54.886Z,4.70
2022-08-20T13:15:56.658Z,5.13
2022-08-20T13:20:58.383Z,2.15
2022-08-20T13:26:00.195Z,4.03
2022-08-20T13:31:04.965Z,4.32
2022-08-20T13:36:07.098Z,3.65
2022-08-20T13:41:09.014Z,3.95
2022-08-20T13:46:11.051Z,9.23
2022-08-20T13:51:16.002Z,3.17
2022-08-20T13:56:21.084Z,3.97
2022-08-20T14:01:23.174Z,6.00
2022-08-20T14:06:25.450Z,4.00
2022-08-20T14:11:27.469Z,2.90
2022-08-20T14:16:33.330Z,5.43
2022-08-20T14:21:38.697Z,3.17
2022-08-20T14:26:40.605Z,3.58
2022-08-20T14:31:42.687Z,2.88
2022-08-20T14:36:44.465Z,3.22
2022-08-20T14:41:49.859Z,5.65
2022-08-20T14:46:51.825Z,3.10
2022-08-20T14:51:53.913Z,3.63
2022-08-20T14:57:01.899Z,5.15
2022-08-20T15:02:09.312Z,2.92
2022-08-20T15:07:37.284Z,4.82
2022-08-20T15:12:39.926Z,3.83
2022-08-20T15:17:47.874Z,2.78
2022-08-20T15:22:51.098Z,2.70
2022-08-20T15:28:00.878Z,3.25
2022-08-20T15:33:03.998Z,3.47
2022-08-20T15:38:05.993Z,3.67
2022-08-20T15:43:08.042Z,1.88
2022-08-20T15:48:18.108Z,2.78
2022-08-20T15:53:39.541Z,1.73
2022-08-20T15:59:21.197Z,4.63
2022-08-20T16:04:28.659Z,3.80
2022-08-20T16:09:51.960Z,3.50
2022-08-20T16:14:59.875Z,1.25
2022-08-20T16:20:17.849Z,2.38
2022-08-20T16:25:24.250Z,4.30
2022-08-20T16:30:39.488Z,6.35
2022-08-20T16:36:30.586Z,2.30
2022-08-20T16:41:38.613Z,3.13
2022-08-20T16:46:49.455Z,3.70
2022-08-20T16:51:52.586Z,4.07
2022-08-20T16:57:04.191Z,5.97
2022-08-20T17:02:10.759Z,8.07
2022-08-20T17:07:12.990Z,4.35
2022-08-20T17:12:28.056Z,3.95
2022-08-20T17:17:35.841Z,3.22
2022-08-20T17:22:47.124Z,4.38
2022-08-20T17:27:49.519Z,2.63
2022-08-20T17:32:58.362Z,5.10
2022-08-20T17:38:02.123Z,3.28
2022-08-20T17:43:09.478Z,4.35
2022-08-20T17:48:15.003Z,4.80
2022-08-20T17:53:23.778Z,3.30
2022-08-20T17:58:52.570Z,5.35
2022-08-20T18:03:57.032Z,4.38
2022-08-20T18:08:58.888Z,1.40
2022-08-20T18:14:17.762Z,2.78
2022-08-20T18:19:37.784Z,1.90
2022-08-20T18:24:54.015Z,2.00
2022-08-20T18:29:59.179Z,2.58
2022-08-20T18:35:22.575Z,4.80
2022-08-20T18:40:33.180Z,5.70
2022-08-20T18:45:36.999Z,2.70
2022-08-20T18:50:38.893Z,3.22
2022-08-20T18:56:00.095Z,3.90
2022-08-20T19:01:07.900Z,3.75
2022-08-20T19:06:15.608Z,1.90
2022-08-20T19:11:44.709Z,5.90
2022-08-20T19:16:55.578Z,5.60
2022-08-20T19:21:57.688Z,4.22
2022-08-20T19:27:02.740Z,3.95
2022-08-20T19:32:08.665Z,3.63
2022-08-20T19:37:35.229Z,10.73
2022-08-20T19:42:43.156Z,2.65
2022-08-20T19:48:14.173Z,5.60
2022-08-20T19:53:30.499Z,3.38
2022-08-20T19:58:34.649Z,4.43
2022-08-20T20:03:38.159Z,5.65
2022-08-20T20:08:50.636Z,5.22
2022-08-20T20:13:52.863Z,4.63
2022-08-20T20:19:15.674Z,3.70
2022-08-20T20:24:27.099Z,4.65
2022-08-20T20:29:35.805Z,3.35
2022-08-20T20:34:54.897Z,2.13
2022-08-20T20:40:08.374Z,2.72
2022-08-20T20:45:21.022Z,3.15
2022-08-20T20:50:34.163Z,2.63
2022-08-20T20:55:38.338Z,4.43
2022-08-20T21:00:40.399Z,1.75
2022-08-20T21:05:42.630Z,3.58
2022-08-20T21:10:44.862Z,4.20
2022-08-20T21:15:46.924Z,1.77
2022-08-20T21:20:51.243Z,4.07
2022-08-20T21:25:53.468Z,2.92
2022-08-20T21:30:58.497Z,5.13
2022-08-20T21:36:00.782Z,4.15
2022-08-20T21:41:02.948Z,7.82
2022-08-20T21:46:05.303Z,3.85
2022-08-20T21:51:07.649Z,4.97
2022-08-20T21:56:10.612Z,4.95
2022-08-20T22:01:13.217Z,9.05
2022-08-20T22:06:15.166Z,12.35
2022-08-20T22:11:17.632Z,5.00
2022-08-20T22:16:21.900Z,3.58
2022-08-20T22:21:27.361Z,3.35
2022-08-20T22:26:30.499Z,4.88
2022-08-20T22:31:34.915Z,5.35
2022-08-20T22:36:36.981Z,3.22
2022-08-20T22:41:39.261Z,2.78
2022-08-20T22:46:47.359Z,3.28
2022-08-20T22:51:50.141Z,7.15
2022-08-20T22:56:53.879Z,3.88
2022-08-20T23:01:55.841Z,2.50
2022-08-20T23:06:58.410Z,5.03
2022-08-20T23:12:00.263Z,3.42
2022-08-20T23:17:10.110Z,4.53
2022-08-20T23:22:14.777Z,2.40
2022-08-20T23:27:19.010Z,1.70
2022-08-20T23:32:21.106Z,4.70
2022-08-20T23:37:23.372Z,3.17
2022-08-20T23:42:25.417Z,8.07
2022-08-20T23:47:28.388Z,3.10
2022-08-20T23:52:30.655Z,4.10
2022-08-20T23:57:32.902Z,2.38
